Terminal Aerodrome Forecast
Issued by NWS

Home | Current Version | Previous Version | Text Only | Print | Product List | Glossary On
Versions: 1 2 3 4 5 6 7 8 9 10 11 12 13 14 15 16
000
FTUS43 KICT 141742
TAFCNU
TAF
KCNU 141742Z 1418/1518 20020G30KT P6SM FEW035 SCT150
     FM150100 20015G25KT P6SM VCTS SCT050CB BKN100
      TEMPO 1501/1504 VRB20G40KT 2SM +TSRA BKN050CB
     FM150400 33018G25KT P6SM BKN150=

USA.gov is the U.S. government's official web portal to all federal, state and local government web resources and services.